»·PEaware :: FDX982 KSAN-KCOS

FDX982 :: KSAN-KCOS

FLIGHT INFORMATION

Flight Status: Arrived
Operator:
Federal Express
More flights by this operator :: More flights under this callsign
Pilot: Anonymous 15639 (15639)
Aircraft: BOEING 727-200
(B722)
More flights by this aircraft type
Origin: KSAN San Diego Intl-Lindbergh
United States
Destination: KCOS City Of Colorado Springs Mun
United States
More flights between these airports :: More routes between these airports
Route: BRDR7 JLI TRM J236 TBC J128 HBU DBRY3
File this flight plan on PilotEdge
Remarks:
Altitude:
(Current/Filed)
31,000ft
Speed:
(Current/Filed)
494kts
Departed: 20-Aug-18 08:27 AM
Arrived: 20-Aug-18 10:18 AM
Distance/Time
Traveled:
707nm/1:51
Distance/Time
To Go:
Arrived

Flight Plot

Page will automatically refresh every two minutes.

Flight plan parsing failed; only flown route is shown


Map Options




Map Legend


Flown Route
Filed Route
Departure Airport
Arrival Airport
Navaid (VOR, NDB)
Fix

Horizontal Profiles

Position Reports

Time Latitude Longitude Heading Altitude Ground
Speed
20-Aug-18 08:04 32.737371 -117.185649 355 29ft 0kts
20-Aug-18 08:05 32.737371 -117.185649 355 29ft 0kts
20-Aug-18 08:06 32.737371 -117.185649 355 29ft 0kts
20-Aug-18 08:07 32.737371 -117.185649 355 29ft 0kts
20-Aug-18 08:08 32.737371 -117.185649 355 29ft 0kts
20-Aug-18 08:09 32.737371 -117.185649 355 29ft 0kts
20-Aug-18 08:10 32.737371 -117.185649 355 29ft 0kts
20-Aug-18 08:11 32.737371 -117.185649 355 29ft 0kts
20-Aug-18 08:12 32.737371 -117.185649 355 29ft 0kts
20-Aug-18 08:13 32.737371 -117.185649 355 29ft 0kts
20-Aug-18 08:14 32.737371 -117.185649 355 29ft 0kts
20-Aug-18 08:15 32.737371 -117.185649 355 29ft 0kts
20-Aug-18 08:16 32.737095 -117.186089 114 29ft 2kts
20-Aug-18 08:17 32.737205 -117.186243 149 29ft 0kts
20-Aug-18 08:18 32.737205 -117.186243 149 29ft 0kts
20-Aug-18 08:19 32.737205 -117.186243 149 29ft 0kts
20-Aug-18 08:20 32.737199 -117.186239 149 29ft 0kts
20-Aug-18 08:21 32.735685 -117.184949 144 29ft 6kts
20-Aug-18 08:22 32.734164 -117.183901 189 29ft 0kts
20-Aug-18 08:23 32.733677 -117.183986 181 29ft 6kts
20-Aug-18 08:24 32.732751 -117.181606 106 29ft 10kts
20-Aug-18 08:25 32.731882 -117.178053 105 29ft 12kts
20-Aug-18 08:26 32.731119 -117.175747 125 29ft 0kts
20-Aug-18 08:27 32.730467 -117.175168 172 29ft 8kts
20-Aug-18 08:28 32.735421 -117.197236 287 283ft 158kts
20-Aug-18 08:29 32.750548 -117.249348 289 2240ft 203kts
20-Aug-18 08:30 32.767795 -117.320715 262 4632ft 257kts
20-Aug-18 08:31 32.712930 -117.346544 146 7554ft 276kts
20-Aug-18 08:32 32.663204 -117.274910 133 11136ft 265kts
20-Aug-18 08:33 32.626085 -117.221260 107 13499ft 266kts
20-Aug-18 08:34 32.617459 -117.103199 95 14503ft 357kts
20-Aug-18 08:35 32.611518 -116.979412 88 16682ft 383kts
20-Aug-18 08:36 32.622916 -116.852521 84 18941ft 394kts
20-Aug-18 08:37 32.640869 -116.722472 64 20875ft 410kts
20-Aug-18 08:38 32.718111 -116.661369 4 22265ft 430kts
20-Aug-18 08:39 32.839910 -116.675740 1 23040ft 460kts
20-Aug-18 08:40 32.991187 -116.639912 16 24493ft 473kts
20-Aug-18 08:41 33.092894 -116.604064 16 26915ft 446kts
20-Aug-18 08:42 33.200138 -116.527729 35 27709ft 460kts
20-Aug-18 08:43 33.304947 -116.438961 35 28679ft 469kts
20-Aug-18 08:44 33.411249 -116.347704 36 29606ft 475kts
20-Aug-18 08:45 33.517662 -116.254810 36 30455ft 480kts
20-Aug-18 08:46 33.626301 -116.159126 37 30876ft 493kts
20-Aug-18 08:47 33.715900 -116.037149 52 30872ft 490kts
20-Aug-18 08:48 33.801754 -115.910686 50 30872ft 488kts
20-Aug-18 08:49 33.888115 -115.785769 50 30872ft 486kts
20-Aug-18 08:50 33.974145 -115.660983 50 30921ft 483kts
20-Aug-18 08:51 34.059582 -115.537036 50 31019ft 480kts
20-Aug-18 08:52 34.144556 -115.414509 50 31049ft 479kts
20-Aug-18 08:53 34.224177 -115.287000 55 30977ft 477kts
20-Aug-18 08:54 34.305558 -115.160346 51 30916ft 478kts
20-Aug-18 08:55 34.389325 -115.035924 51 30916ft 477kts
20-Aug-18 08:56 34.473299 -114.911550 50 30917ft 477kts
20-Aug-18 08:57 34.556695 -114.787608 50 30918ft 477kts
20-Aug-18 08:58 34.640414 -114.662723 50 30918ft 476kts
20-Aug-18 08:59 34.723509 -114.537937 51 30919ft 476kts
20-Aug-18 09:00 34.801504 -114.408586 57 30920ft 475kts
20-Aug-18 09:01 34.864811 -114.272413 63 30918ft 474kts
20-Aug-18 09:02 34.925140 -114.130022 63 30985ft 473kts
20-Aug-18 09:03 34.984771 -113.987632 63 31102ft 472kts
20-Aug-18 09:04 35.043359 -113.844515 62 31111ft 474kts
20-Aug-18 09:05 35.101701 -113.699817 62 31114ft 479kts
20-Aug-18 09:06 35.162981 -113.554543 61 31113ft 486kts
20-Aug-18 09:07 35.225866 -113.407306 61 31114ft 493kts
20-Aug-18 09:08 35.287175 -113.260412 62 31120ft 498kts
20-Aug-18 09:09 35.352428 -113.111491 59 31258ft 499kts
20-Aug-18 09:10 35.422457 -112.964379 57 31358ft 502kts
20-Aug-18 09:11 35.494131 -112.817031 57 31359ft 506kts
20-Aug-18 09:12 35.559833 -112.664399 61 31359ft 509kts
20-Aug-18 09:13 35.623771 -112.508741 61 31360ft 512kts
20-Aug-18 09:14 35.687638 -112.352382 61 31360ft 515kts
20-Aug-18 09:15 35.750993 -112.194692 62 31356ft 516kts
20-Aug-18 09:16 35.814931 -112.036650 62 31355ft 515kts
20-Aug-18 09:17 35.878435 -111.879169 62 31356ft 512kts
20-Aug-18 09:18 35.941420 -111.722035 62 31357ft 510kts
20-Aug-18 09:19 36.003702 -111.566023 62 31358ft 508kts
20-Aug-18 09:20 36.065848 -111.409434 62 31311ft 508kts
20-Aug-18 09:21 36.128258 -111.253397 60 31192ft 508kts
20-Aug-18 09:22 36.212522 -111.116190 53 31165ft 500kts
20-Aug-18 09:23 36.292762 -110.976805 52 31164ft 497kts
20-Aug-18 09:24 36.373191 -110.838211 52 31165ft 496kts
20-Aug-18 09:25 36.453355 -110.699677 52 31165ft 494kts
20-Aug-18 09:26 36.533294 -110.561180 52 31166ft 493kts
20-Aug-18 09:27 36.612571 -110.422587 52 31167ft 492kts
20-Aug-18 09:28 36.691163 -110.284409 53 31242ft 489kts
20-Aug-18 09:29 36.769139 -110.146600 52 31358ft 486kts
20-Aug-18 09:30 36.847033 -110.009357 52 31365ft 486kts
20-Aug-18 09:31 36.928085 -109.876133 42 31377ft 479kts
20-Aug-18 09:32 37.012826 -109.746467 51 31366ft 483kts
20-Aug-18 09:33 37.090421 -109.609038 51 31367ft 485kts
20-Aug-18 09:34 37.167865 -109.471985 51 31371ft 487kts
20-Aug-18 09:35 37.244856 -109.331961 53 31366ft 494kts
20-Aug-18 09:36 37.319315 -109.193591 52 31365ft 498kts
20-Aug-18 09:37 37.397637 -109.049087 52 31343ft 503kts
20-Aug-18 09:38 37.476386 -108.903429 52 31321ft 506kts
20-Aug-18 09:39 37.555394 -108.756501 52 31321ft 506kts
20-Aug-18 09:40 37.633872 -108.609702 52 31322ft 506kts
20-Aug-18 09:41 37.712429 -108.462649 52 31325ft 505kts
20-Aug-18 09:42 37.789044 -108.317442 53 31430ft 503kts
20-Aug-18 09:43 37.865975 -108.170785 52 31536ft 500kts
20-Aug-18 09:44 37.942958 -108.024410 52 31538ft 500kts
20-Aug-18 09:45 38.019600 -107.878109 52 31538ft 500kts
20-Aug-18 09:46 38.096177 -107.731162 52 31532ft 501kts
20-Aug-18 09:47 38.173363 -107.584633 52 31441ft 503kts
20-Aug-18 09:48 38.250272 -107.436017 52 31377ft 505kts
20-Aug-18 09:49 38.326453 -107.286278 53 31442ft 504kts
20-Aug-18 09:50 38.402321 -107.137475 53 31456ft 503kts
20-Aug-18 09:51 38.450328 -106.972959 91 31470ft 515kts
20-Aug-18 09:52 38.437710 -106.791148 93 31459ft 517kts
20-Aug-18 09:53 38.428665 -106.608749 87 31446ft 505kts
20-Aug-18 09:54 38.418578 -106.433827 93 29332ft 490kts
20-Aug-18 09:55 38.407247 -106.263451 94 27409ft 476kts
20-Aug-18 09:56 38.396734 -106.098183 94 25726ft 462kts
20-Aug-18 09:57 38.386596 -105.937105 94 24491ft 455kts
20-Aug-18 09:58 38.375882 -105.772177 94 24490ft 478kts
20-Aug-18 09:59 38.364638 -105.600194 94 24490ft 496kts
20-Aug-18 10:00 38.355895 -105.434739 90 23190ft 461kts
20-Aug-18 10:01 38.348919 -105.273970 94 21012ft 447kts
20-Aug-18 10:02 38.339596 -105.123220 94 20353ft 411kts
20-Aug-18 10:03 38.330544 -104.976390 93 19310ft 412kts
20-Aug-18 10:04 38.321398 -104.833337 93 17562ft 399kts
20-Aug-18 10:05 38.312225 -104.695080 93 15820ft 387kts
20-Aug-18 10:06 38.341542 -104.575535 31 13996ft 364kts
20-Aug-18 10:07 38.435293 -104.576451 342 12311ft 342kts
20-Aug-18 10:08 38.523107 -104.614127 339 10905ft 328kts
20-Aug-18 10:09 38.606782 -104.640786 357 10244ft 295kts
20-Aug-18 10:10 38.688397 -104.639689 358 9026ft 294kts
20-Aug-18 10:11 38.765580 -104.638218 358 8982ft 258kts
20-Aug-18 10:12 38.831799 -104.637465 358 8994ft 219kts
20-Aug-18 10:13 38.886656 -104.636409 358 8966ft 174kts
20-Aug-18 10:14 38.934130 -104.642372 309 8935ft 169kts
20-Aug-18 10:15 38.911844 -104.677175 202 7959ft 146kts
20-Aug-18 10:16 38.872092 -104.685661 180 7214ft 144kts
20-Aug-18 10:17 38.831803 -104.685631 181 6517ft 145kts
20-Aug-18 10:18 38.798112 -104.685766 180 6199ft 64kts
20-Aug-18 10:19 38.790791 -104.686761 211 6199ft 5kts
20-Aug-18 10:20 38.792277 -104.687634 359 6199ft 15kts
20-Aug-18 10:21 38.797975 -104.687625 358 6199ft 25kts
20-Aug-18 10:22 38.803417 -104.687917 326 6199ft 7kts
20-Aug-18 10:23 38.803948 -104.692022 270 6199ft 14kts
20-Aug-18 10:24 38.803941 -104.697480 269 6199ft 16kts
20-Aug-18 10:25 38.803949 -104.703696 269 6199ft 18kts
20-Aug-18 10:26 38.803950 -104.710655 269 6199ft 20kts
20-Aug-18 10:27 38.803979 -104.717477 291 6199ft 11kts
20-Aug-18 10:28 38.807857 -104.717805 359 6199ft 16kts
20-Aug-18 10:29 38.812362 -104.717977 311 6199ft 14kts
20-Aug-18 10:30 38.813467 -104.721152 0 6199ft 9kts
20-Aug-18 10:31 38.815091 -104.721131 0 6199ft 0kts
20-Aug-18 10:32 38.815091 -104.721131 0 6199ft 0kts
20-Aug-18 10:33 38.815091 -104.721131 0 6199ft 0kts
20-Aug-18 10:34 38.815091 -104.721131 0 6199ft 0kts

Navigation Log

Ident Type
Flight plan parsing failed, navigation log unavailable